sensor_id;sensor_type;location;lat;lon;timestamp;P1;durP1;ratioP1;P2;durP2;ratioP2
5923;SDS011;2987;50.884;14.818;2023-02-01T00:02:03;4.60;;;2.83;;
5923;SDS011;2987;50.884;14.818;2023-02-01T00:04:30;6.03;;;2.70;;
5923;SDS011;2987;50.884;14.818;2023-02-01T00:06:56;7.07;;;3.10;;
5923;SDS011;2987;50.884;14.818;2023-02-01T00:09:25;5.40;;;2.70;;
5923;SDS011;2987;50.884;14.818;2023-02-01T00:11:51;8.10;;;2.67;;
5923;SDS011;2987;50.884;14.818;2023-02-01T00:14:17;6.67;;;2.80;;
5923;SDS011;2987;50.884;14.818;2023-02-01T00:16:44;9.90;;;2.43;;
5923;SDS011;2987;50.884;14.818;2023-02-01T00:19:11;10.60;;;3.03;;
5923;SDS011;2987;50.884;14.818;2023-02-01T00:21:39;15.70;;;3.10;;
5923;SDS011;2987;50.884;14.818;2023-02-01T00:24:07;8.77;;;3.87;;
5923;SDS011;2987;50.884;14.818;2023-02-01T00:26:36;10.20;;;3.10;;
5923;SDS011;2987;50.884;14.818;2023-02-01T00:29:05;8.87;;;2.53;;
5923;SDS011;2987;50.884;14.818;2023-02-01T00:31:34;10.47;;;3.10;;
5923;SDS011;2987;50.884;14.818;2023-02-01T00:34:01;7.80;;;2.90;;
5923;SDS011;2987;50.884;14.818;2023-02-01T00:36:27;11.67;;;3.10;;
5923;SDS011;2987;50.884;14.818;2023-02-01T00:38:55;10.90;;;3.37;;
5923;SDS011;2987;50.884;14.818;2023-02-01T00:41:21;14.70;;;4.00;;
5923;SDS011;2987;50.884;14.818;2023-02-01T00:43:49;8.57;;;3.00;;
5923;SDS011;2987;50.884;14.818;2023-02-01T00:46:16;14.17;;;3.13;;
5923;SDS011;2987;50.884;14.818;2023-02-01T00:48:44;11.77;;;3.80;;
5923;SDS011;2987;50.884;14.818;2023-02-01T00:51:12;8.20;;;2.97;;
5923;SDS011;2987;50.884;14.818;2023-02-01T00:53:40;7.80;;;2.80;;
5923;SDS011;2987;50.884;14.818;2023-02-01T00:56:06;9.80;;;3.43;;
5923;SDS011;2987;50.884;14.818;2023-02-01T00:58:33;9.67;;;3.17;;
5923;SDS011;2987;50.884;14.818;2023-02-01T01:01:01;9.47;;;3.37;;
5923;SDS011;2987;50.884;14.818;2023-02-01T01:03:34;12.70;;;3.33;;
5923;SDS011;2987;50.884;14.818;2023-02-01T01:06:04;10.20;;;3.33;;
5923;SDS011;2987;50.884;14.818;2023-02-01T01:08:32;11.23;;;3.00;;
5923;SDS011;2987;50.884;14.818;2023-02-01T01:11:03;9.23;;;3.13;;
5923;SDS011;2987;50.884;14.818;2023-02-01T01:13:34;18.90;;;4.10;;
5923;SDS011;2987;50.884;14.818;2023-02-01T01:16:01;10.33;;;3.33;;
5923;SDS011;2987;50.884;14.818;2023-02-01T01:18:29;11.37;;;3.10;;
5923;SDS011;2987;50.884;14.818;2023-02-01T01:20:56;10.47;;;3.10;;
5923;SDS011;2987;50.884;14.818;2023-02-01T01:23:23;9.80;;;3.30;;
5923;SDS011;2987;50.884;14.818;2023-02-01T01:25:49;16.23;;;3.57;;
5923;SDS011;2987;50.884;14.818;2023-02-01T01:28:15;8.63;;;3.20;;
5923;SDS011;2987;50.884;14.818;2023-02-01T01:30:41;10.93;;;3.73;;
5923;SDS011;2987;50.884;14.818;2023-02-01T01:33:08;12.93;;;3.67;;
5923;SDS011;2987;50.884;14.818;2023-02-01T01:35:34;7.13;;;3.03;;
5923;SDS011;2987;50.884;14.818;2023-02-01T01:38:01;7.63;;;2.87;;
5923;SDS011;2987;50.884;14.818;2023-02-01T01:40:27;11.97;;;3.37;;
5923;SDS011;2987;50.884;14.818;2023-02-01T01:42:56;8.30;;;3.60;;
5923;SDS011;2987;50.884;14.818;2023-02-01T01:45:24;12.17;;;3.70;;
5923;SDS011;2987;50.884;14.818;2023-02-01T01:47:54;13.93;;;3.40;;
5923;SDS011;2987;50.884;14.818;2023-02-01T01:50:25;19.53;;;3.27;;
5923;SDS011;2987;50.884;14.818;2023-02-01T01:52:54;9.73;;;3.27;;
5923;SDS011;2987;50.884;14.818;2023-02-01T01:55:24;14.13;;;3.30;;
5923;SDS011;2987;50.884;14.818;2023-02-01T01:57:55;13.40;;;3.47;;
5923;SDS011;2987;50.884;14.818;2023-02-01T02:00:27;12.13;;;3.10;;
5923;SDS011;2987;50.884;14.818;2023-02-01T02:02:59;7.77;;;2.90;;
5923;SDS011;2987;50.884;14.818;2023-02-01T02:05:32;8.67;;;2.67;;
5923;SDS011;2987;50.884;14.818;2023-02-01T02:07:59;11.13;;;3.80;;
5923;SDS011;2987;50.884;14.818;2023-02-01T02:10:27;11.80;;;3.33;;
5923;SDS011;2987;50.884;14.818;2023-02-01T02:13:14;7.73;;;2.60;;
5923;SDS011;2987;50.884;14.818;2023-02-01T02:47:52;9.37;;;2.63;;
5923;SDS011;2987;50.884;14.818;2023-02-01T02:50:27;10.73;;;2.80;;
5923;SDS011;2987;50.884;14.818;2023-02-01T02:53:21;7.73;;;3.67;;
5923;SDS011;2987;50.884;14.818;2023-02-01T02:56:14;9.67;;;3.27;;
5923;SDS011;2987;50.884;14.818;2023-02-01T02:59:00;8.73;;;2.97;;
5923;SDS011;2987;50.884;14.818;2023-02-01T03:01:48;5.97;;;2.40;;
5923;SDS011;2987;50.884;14.818;2023-02-01T03:04:34;9.57;;;3.17;;
5923;SDS011;2987;50.884;14.818;2023-02-01T03:12:33;12.50;;;3.23;;
5923;SDS011;2987;50.884;14.818;2023-02-01T03:15:31;10.20;;;3.10;;
5923;SDS011;2987;50.884;14.818;2023-02-01T03:18:02;8.83;;;3.27;;
5923;SDS011;2987;50.884;14.818;2023-02-01T03:20:37;10.77;;;2.70;;
5923;SDS011;2987;50.884;14.818;2023-02-01T03:25:36;7.40;;;3.27;;
5923;SDS011;2987;50.884;14.818;2023-02-01T03:28:04;8.83;;;2.87;;
5923;SDS011;2987;50.884;14.818;2023-02-01T03:30:39;10.90;;;2.83;;
5923;SDS011;2987;50.884;14.818;2023-02-01T03:33:10;9.47;;;3.13;;
5923;SDS011;2987;50.884;14.818;2023-02-01T03:35:57;7.90;;;2.60;;
5923;SDS011;2987;50.884;14.818;2023-02-01T03:38:49;10.40;;;2.60;;
5923;SDS011;2987;50.884;14.818;2023-02-01T03:46:26;7.10;;;2.90;;
5923;SDS011;2987;50.884;14.818;2023-02-01T03:49:00;11.63;;;2.73;;
5923;SDS011;2987;50.884;14.818;2023-02-01T03:51:30;6.33;;;2.47;;
5923;SDS011;2987;50.884;14.818;2023-02-01T03:53:58;6.77;;;2.90;;
5923;SDS011;2987;50.884;14.818;2023-02-01T03:56:28;8.70;;;2.47;;
5923;SDS011;2987;50.884;14.818;2023-02-01T03:58:57;6.10;;;2.37;;
5923;SDS011;2987;50.884;14.818;2023-02-01T04:01:28;7.73;;;2.27;;
5923;SDS011;2987;50.884;14.818;2023-02-01T04:03:57;8.60;;;2.70;;
5923;SDS011;2987;50.884;14.818;2023-02-01T04:06:25;9.33;;;2.73;;
5923;SDS011;2987;50.884;14.818;2023-02-01T04:08:54;7.77;;;2.63;;
5923;SDS011;2987;50.884;14.818;2023-02-01T04:11:21;6.13;;;2.53;;
5923;SDS011;2987;50.884;14.818;2023-02-01T04:13:47;15.43;;;2.90;;
5923;SDS011;2987;50.884;14.818;2023-02-01T04:16:13;15.30;;;3.00;;
5923;SDS011;2987;50.884;14.818;2023-02-01T04:18:39;14.10;;;2.97;;
5923;SDS011;2987;50.884;14.818;2023-02-01T04:21:06;9.37;;;2.80;;
5923;SDS011;2987;50.884;14.818;2023-02-01T04:23:32;11.50;;;3.63;;
5923;SDS011;2987;50.884;14.818;2023-02-01T04:25:58;11.77;;;2.77;;
5923;SDS011;2987;50.884;14.818;2023-02-01T04:28:28;9.37;;;2.80;;
5923;SDS011;2987;50.884;14.818;2023-02-01T04:30:55;11.80;;;2.60;;
5923;SDS011;2987;50.884;14.818;2023-02-01T04:33:22;12.20;;;3.43;;
5923;SDS011;2987;50.884;14.818;2023-02-01T04:35:48;16.97;;;3.27;;
5923;SDS011;2987;50.884;14.818;2023-02-01T04:38:14;12.80;;;3.40;;
5923;SDS011;2987;50.884;14.818;2023-02-01T04:40:40;11.43;;;3.83;;
5923;SDS011;2987;50.884;14.818;2023-02-01T04:43:06;11.20;;;2.83;;
5923;SDS011;2987;50.884;14.818;2023-02-01T04:45:33;9.17;;;3.13;;
5923;SDS011;2987;50.884;14.818;2023-02-01T04:47:59;9.67;;;3.33;;
5923;SDS011;2987;50.884;14.818;2023-02-01T04:50:25;9.50;;;2.93;;
5923;SDS011;2987;50.884;14.818;2023-02-01T04:52:52;11.93;;;3.00;;
5923;SDS011;2987;50.884;14.818;2023-02-01T04:55:18;11.30;;;2.70;;
5923;SDS011;2987;50.884;14.818;2023-02-01T04:57:44;9.47;;;3.20;;
5923;SDS011;2987;50.884;14.818;2023-02-01T05:00:10;13.37;;;3.37;;
5923;SDS011;2987;50.884;14.818;2023-02-01T05:02:38;11.63;;;3.20;;
5923;SDS011;2987;50.884;14.818;2023-02-01T05:05:05;12.50;;;3.70;;
5923;SDS011;2987;50.884;14.818;2023-02-01T05:07:31;17.83;;;3.37;;
5923;SDS011;2987;50.884;14.818;2023-02-01T05:09:57;12.20;;;4.13;;
5923;SDS011;2987;50.884;14.818;2023-02-01T05:12:23;9.53;;;2.93;;
5923;SDS011;2987;50.884;14.818;2023-02-01T05:15:11;7.90;;;2.67;;
5923;SDS011;2987;50.884;14.818;2023-02-01T05:17:37;11.90;;;3.17;;
5923;SDS011;2987;50.884;14.818;2023-02-01T05:20:03;11.20;;;3.53;;
5923;SDS011;2987;50.884;14.818;2023-02-01T05:22:30;9.53;;;2.73;;
5923;SDS011;2987;50.884;14.818;2023-02-01T05:24:56;9.73;;;2.63;;
5923;SDS011;2987;50.884;14.818;2023-02-01T05:27:23;10.80;;;2.87;;
5923;SDS011;2987;50.884;14.818;2023-02-01T05:29:49;9.03;;;2.83;;
5923;SDS011;2987;50.884;14.818;2023-02-01T05:32:15;11.33;;;3.80;;
5923;SDS011;2987;50.884;14.818;2023-02-01T05:34:41;10.33;;;3.13;;
5923;SDS011;2987;50.884;14.818;2023-02-01T05:37:07;9.53;;;3.67;;
5923;SDS011;2987;50.884;14.818;2023-02-01T05:39:34;13.17;;;3.53;;
5923;SDS011;2987;50.884;14.818;2023-02-01T05:42:00;10.53;;;2.90;;
5923;SDS011;2987;50.884;14.818;2023-02-01T05:44:26;8.03;;;2.67;;
5923;SDS011;2987;50.884;14.818;2023-02-01T05:46:52;12.07;;;3.00;;
5923;SDS011;2987;50.884;14.818;2023-02-01T05:49:18;11.60;;;3.37;;
5923;SDS011;2987;50.884;14.818;2023-02-01T05:51:44;12.33;;;3.43;;
5923;SDS011;2987;50.884;14.818;2023-02-01T05:54:10;9.77;;;2.90;;
5923;SDS011;2987;50.884;14.818;2023-02-01T05:56:37;10.73;;;3.03;;
5923;SDS011;2987;50.884;14.818;2023-02-01T05:59:03;11.90;;;3.13;;
5923;SDS011;2987;50.884;14.818;2023-02-01T06:01:29;10.00;;;2.53;;
5923;SDS011;2987;50.884;14.818;2023-02-01T06:03:55;9.63;;;3.00;;
5923;SDS011;2987;50.884;14.818;2023-02-01T06:06:22;9.10;;;2.77;;
5923;SDS011;2987;50.884;14.818;2023-02-01T06:08:48;10.00;;;2.80;;
5923;SDS011;2987;50.884;14.818;2023-02-01T06:11:14;10.17;;;2.87;;
5923;SDS011;2987;50.884;14.818;2023-02-01T06:13:40;17.37;;;3.00;;
5923;SDS011;2987;50.884;14.818;2023-02-01T06:16:06;12.90;;;2.93;;
5923;SDS011;2987;50.884;14.818;2023-02-01T06:18:33;7.70;;;3.30;;
5923;SDS011;2987;50.884;14.818;2023-02-01T06:21:00;10.57;;;2.73;;
5923;SDS011;2987;50.884;14.818;2023-02-01T06:23:30;15.30;;;3.57;;
5923;SDS011;2987;50.884;14.818;2023-02-01T06:25:58;17.37;;;3.67;;
5923;SDS011;2987;50.884;14.818;2023-02-01T06:31:18;7.60;;;2.80;;
5923;SDS011;2987;50.884;14.818;2023-02-01T06:33:45;8.30;;;2.73;;
5923;SDS011;2987;50.884;14.818;2023-02-01T06:36:12;8.70;;;2.93;;
5923;SDS011;2987;50.884;14.818;2023-02-01T06:38:40;9.03;;;2.53;;
5923;SDS011;2987;50.884;14.818;2023-02-01T06:41:07;12.97;;;2.77;;
5923;SDS011;2987;50.884;14.818;2023-02-01T06:43:34;11.33;;;3.10;;
5923;SDS011;2987;50.884;14.818;2023-02-01T06:46:01;12.80;;;3.10;;
5923;SDS011;2987;50.884;14.818;2023-02-01T06:48:30;10.13;;;3.07;;
5923;SDS011;2987;50.884;14.818;2023-02-01T06:50:57;11.67;;;3.00;;
5923;SDS011;2987;50.884;14.818;2023-02-01T06:53:23;9.43;;;3.00;;
5923;SDS011;2987;50.884;14.818;2023-02-01T06:55:58;13.67;;;3.97;;
5923;SDS011;2987;50.884;14.818;2023-02-01T06:58:29;10.83;;;3.00;;
5923;SDS011;2987;50.884;14.818;2023-02-01T07:00:57;10.20;;;3.00;;
5923;SDS011;2987;50.884;14.818;2023-02-01T07:03:24;19.87;;;3.13;;
5923;SDS011;2987;50.884;14.818;2023-02-01T07:05:55;10.93;;;2.53;;
5923;SDS011;2987;50.884;14.818;2023-02-01T07:08:27;9.93;;;3.07;;
5923;SDS011;2987;50.884;14.818;2023-02-01T07:10:54;16.30;;;3.30;;
5923;SDS011;2987;50.884;14.818;2023-02-01T07:13:20;11.90;;;3.13;;
5923;SDS011;2987;50.884;14.818;2023-02-01T07:15:46;16.57;;;3.20;;
5923;SDS011;2987;50.884;14.818;2023-02-01T07:18:13;10.57;;;3.37;;
5923;SDS011;2987;50.884;14.818;2023-02-01T07:20:40;10.80;;;3.00;;
5923;SDS011;2987;50.884;14.818;2023-02-01T07:23:09;13.57;;;3.37;;
5923;SDS011;2987;50.884;14.818;2023-02-01T07:25:36;16.63;;;3.33;;
5923;SDS011;2987;50.884;14.818;2023-02-01T07:28:02;8.50;;;2.50;;
5923;SDS011;2987;50.884;14.818;2023-02-01T07:30:28;11.67;;;3.43;;
5923;SDS011;2987;50.884;14.818;2023-02-01T07:32:54;10.03;;;3.20;;
5923;SDS011;2987;50.884;14.818;2023-02-01T07:35:20;20.23;;;4.20;;
5923;SDS011;2987;50.884;14.818;2023-02-01T07:37:46;14.93;;;3.43;;
5923;SDS011;2987;50.884;14.818;2023-02-01T07:40:12;10.90;;;3.07;;
5923;SDS011;2987;50.884;14.818;2023-02-01T07:42:38;12.53;;;3.73;;
5923;SDS011;2987;50.884;14.818;2023-02-01T07:45:05;10.33;;;3.23;;
5923;SDS011;2987;50.884;14.818;2023-02-01T07:47:31;12.20;;;3.60;;
5923;SDS011;2987;50.884;14.818;2023-02-01T07:49:57;10.27;;;3.20;;
5923;SDS011;2987;50.884;14.818;2023-02-01T07:52:24;10.43;;;3.57;;
5923;SDS011;2987;50.884;14.818;2023-02-01T07:54:52;10.73;;;3.23;;
5923;SDS011;2987;50.884;14.818;2023-02-01T07:57:19;8.17;;;3.53;;
5923;SDS011;2987;50.884;14.818;2023-02-01T07:59:45;9.90;;;3.40;;
5923;SDS011;2987;50.884;14.818;2023-02-01T08:02:38;13.63;;;3.80;;
5923;SDS011;2987;50.884;14.818;2023-02-01T08:05:04;11.47;;;3.40;;
5923;SDS011;2987;50.884;14.818;2023-02-01T08:07:33;12.30;;;3.83;;
5923;SDS011;2987;50.884;14.818;2023-02-01T08:09:59;5.53;;;3.20;;
5923;SDS011;2987;50.884;14.818;2023-02-01T08:12:26;12.57;;;3.37;;
5923;SDS011;2987;50.884;14.818;2023-02-01T08:14:52;8.50;;;3.43;;
5923;SDS011;2987;50.884;14.818;2023-02-01T08:17:19;13.83;;;4.03;;
5923;SDS011;2987;50.884;14.818;2023-02-01T08:19:46;7.27;;;3.40;;
5923;SDS011;2987;50.884;14.818;2023-02-01T08:22:12;13.23;;;3.60;;
5923;SDS011;2987;50.884;14.818;2023-02-01T08:24:38;8.77;;;2.87;;
5923;SDS011;2987;50.884;14.818;2023-02-01T08:27:06;10.43;;;3.73;;
5923;SDS011;2987;50.884;14.818;2023-02-01T08:29:32;9.67;;;3.47;;
5923;SDS011;2987;50.884;14.818;2023-02-01T08:31:58;16.03;;;3.70;;
5923;SDS011;2987;50.884;14.818;2023-02-01T08:34:24;12.80;;;3.60;;
5923;SDS011;2987;50.884;14.818;2023-02-01T08:36:51;11.00;;;3.47;;
5923;SDS011;2987;50.884;14.818;2023-02-01T08:39:23;13.90;;;3.80;;
5923;SDS011;2987;50.884;14.818;2023-02-01T08:41:49;12.57;;;4.17;;
5923;SDS011;2987;50.884;14.818;2023-02-01T08:44:35;11.87;;;4.50;;
5923;SDS011;2987;50.884;14.818;2023-02-01T08:47:02;9.70;;;3.40;;
5923;SDS011;2987;50.884;14.818;2023-02-01T08:49:29;11.20;;;4.27;;
5923;SDS011;2987;50.884;14.818;2023-02-01T08:51:55;8.63;;;3.27;;
5923;SDS011;2987;50.884;14.818;2023-02-01T08:54:21;10.33;;;3.60;;
5923;SDS011;2987;50.884;14.818;2023-02-01T08:56:47;10.00;;;3.07;;
5923;SDS011;2987;50.884;14.818;2023-02-01T08:59:14;13.20;;;3.37;;
5923;SDS011;2987;50.884;14.818;2023-02-01T09:01:40;9.97;;;3.50;;
5923;SDS011;2987;50.884;14.818;2023-02-01T09:04:06;7.37;;;2.97;;
5923;SDS011;2987;50.884;14.818;2023-02-01T09:06:32;7.23;;;2.93;;
5923;SDS011;2987;50.884;14.818;2023-02-01T09:08:58;10.23;;;3.90;;
5923;SDS011;2987;50.884;14.818;2023-02-01T09:11:24;9.37;;;3.20;;
5923;SDS011;2987;50.884;14.818;2023-02-01T09:13:51;7.80;;;2.70;;
5923;SDS011;2987;50.884;14.818;2023-02-01T09:16:17;6.63;;;2.90;;
5923;SDS011;2987;50.884;14.818;2023-02-01T09:18:43;7.03;;;2.57;;
5923;SDS011;2987;50.884;14.818;2023-02-01T09:21:09;9.13;;;2.83;;
5923;SDS011;2987;50.884;14.818;2023-02-01T09:23:36;7.87;;;3.10;;
5923;SDS011;2987;50.884;14.818;2023-02-01T09:26:03;7.90;;;3.27;;
5923;SDS011;2987;50.884;14.818;2023-02-01T09:28:30;10.70;;;2.47;;
5923;SDS011;2987;50.884;14.818;2023-02-01T09:30:59;5.10;;;3.03;;
5923;SDS011;2987;50.884;14.818;2023-02-01T09:33:26;8.13;;;3.63;;
5923;SDS011;2987;50.884;14.818;2023-02-01T09:35:57;6.77;;;2.80;;
5923;SDS011;2987;50.884;14.818;2023-02-01T09:38:27;8.80;;;2.93;;
5923;SDS011;2987;50.884;14.818;2023-02-01T09:40:55;12.23;;;3.30;;
5923;SDS011;2987;50.884;14.818;2023-02-01T09:43:27;5.47;;;2.90;;
5923;SDS011;2987;50.884;14.818;2023-02-01T09:51:25;6.43;;;3.63;;
5923;SDS011;2987;50.884;14.818;2023-02-01T09:53:59;10.37;;;3.60;;
5923;SDS011;2987;50.884;14.818;2023-02-01T09:59:09;9.33;;;2.90;;
5923;SDS011;2987;50.884;14.818;2023-02-01T10:01:50;10.50;;;4.17;;
5923;SDS011;2987;50.884;14.818;2023-02-01T10:04:16;7.40;;;3.50;;
5923;SDS011;2987;50.884;14.818;2023-02-01T10:12:36;7.77;;;3.17;;
5923;SDS011;2987;50.884;14.818;2023-02-01T10:24:25;9.53;;;3.20;;
5923;SDS011;2987;50.884;14.818;2023-02-01T10:32:23;7.73;;;2.87;;
5923;SDS011;2987;50.884;14.818;2023-02-01T10:34:58;10.37;;;3.40;;
5923;SDS011;2987;50.884;14.818;2023-02-01T10:37:28;10.47;;;3.30;;
5923;SDS011;2987;50.884;14.818;2023-02-01T10:39:59;4.83;;;2.47;;
5923;SDS011;2987;50.884;14.818;2023-02-01T10:42:35;5.30;;;2.50;;
5923;SDS011;2987;50.884;14.818;2023-02-01T10:45:02;6.87;;;2.60;;
5923;SDS011;2987;50.884;14.818;2023-02-01T10:47:29;6.77;;;2.70;;
5923;SDS011;2987;50.884;14.818;2023-02-01T10:55:40;5.63;;;2.30;;
5923;SDS011;2987;50.884;14.818;2023-02-01T10:58:16;5.27;;;2.20;;
5923;SDS011;2987;50.884;14.818;2023-02-01T11:03:34;1.93;;;1.80;;
5923;SDS011;2987;50.884;14.818;2023-02-01T11:06:04;1.50;;;1.50;;
5923;SDS011;2987;50.884;14.818;2023-02-01T11:08:53;1.53;;;1.43;;
5923;SDS011;2987;50.884;14.818;2023-02-01T11:11:23;2.73;;;1.60;;
5923;SDS011;2987;50.884;14.818;2023-02-01T11:13:53;3.17;;;1.70;;
5923;SDS011;2987;50.884;14.818;2023-02-01T11:16:28;1.70;;;1.57;;
5923;SDS011;2987;50.884;14.818;2023-02-01T11:18:58;3.70;;;1.80;;
5923;SDS011;2987;50.884;14.818;2023-02-01T11:21:24;5.00;;;2.13;;
5923;SDS011;2987;50.884;14.818;2023-02-01T11:23:51;3.43;;;1.90;;
5923;SDS011;2987;50.884;14.818;2023-02-01T11:26:22;4.07;;;2.37;;
5923;SDS011;2987;50.884;14.818;2023-02-01T11:28:55;3.60;;;1.93;;
5923;SDS011;2987;50.884;14.818;2023-02-01T11:31:26;1.80;;;1.70;;
5923;SDS011;2987;50.884;14.818;2023-02-01T11:33:55;2.10;;;1.70;;
5923;SDS011;2987;50.884;14.818;2023-02-01T11:36:28;3.40;;;1.90;;
5923;SDS011;2987;50.884;14.818;2023-02-01T11:44:40;4.67;;;2.30;;
5923;SDS011;2987;50.884;14.818;2023-02-01T11:49:58;3.17;;;2.30;;
5923;SDS011;2987;50.884;14.818;2023-02-01T11:52:29;5.93;;;2.83;;
5923;SDS011;2987;50.884;14.818;2023-02-01T11:58:35;8.40;;;2.97;;
5923;SDS011;2987;50.884;14.818;2023-02-01T12:01:22;4.13;;;2.40;;
5923;SDS011;2987;50.884;14.818;2023-02-01T12:07:16;6.30;;;2.83;;
5923;SDS011;2987;50.884;14.818;2023-02-01T12:13:07;7.30;;;2.70;;
5923;SDS011;2987;50.884;14.818;2023-02-01T12:37:34;9.83;;;3.00;;
5923;SDS011;2987;50.884;14.818;2023-02-01T12:45:31;8.53;;;3.83;;
5923;SDS011;2987;50.884;14.818;2023-02-01T12:56:09;6.63;;;2.93;;
5923;SDS011;2987;50.884;14.818;2023-02-01T13:01:15;12.77;;;3.20;;
5923;SDS011;2987;50.884;14.818;2023-02-01T13:06:43;10.57;;;3.23;;
5923;SDS011;2987;50.884;14.818;2023-02-01T13:09:23;6.17;;;3.20;;
5923;SDS011;2987;50.884;14.818;2023-02-01T13:16:57;6.23;;;2.93;;
5923;SDS011;2987;50.884;14.818;2023-02-01T13:19:30;8.37;;;3.73;;
5923;SDS011;2987;50.884;14.818;2023-02-01T13:22:11;10.80;;;4.63;;
5923;SDS011;2987;50.884;14.818;2023-02-01T13:24:43;12.00;;;4.07;;
5923;SDS011;2987;50.884;14.818;2023-02-01T13:27:15;11.13;;;3.33;;
5923;SDS011;2987;50.884;14.818;2023-02-01T13:29:46;6.33;;;3.43;;
5923;SDS011;2987;50.884;14.818;2023-02-01T13:32:28;7.80;;;3.33;;
5923;SDS011;2987;50.884;14.818;2023-02-01T13:44:00;7.70;;;2.80;;
5923;SDS011;2987;50.884;14.818;2023-02-01T13:51:32;8.07;;;3.27;;
5923;SDS011;2987;50.884;14.818;2023-02-01T13:54:03;7.30;;;3.77;;
5923;SDS011;2987;50.884;14.818;2023-02-01T13:56:32;8.77;;;3.33;;
5923;SDS011;2987;50.884;14.818;2023-02-01T13:59:35;12.00;;;3.57;;
5923;SDS011;2987;50.884;14.818;2023-02-01T14:16:10;10.00;;;3.63;;
5923;SDS011;2987;50.884;14.818;2023-02-01T14:21:31;9.40;;;3.70;;
5923;SDS011;2987;50.884;14.818;2023-02-01T14:24:04;9.47;;;3.63;;
5923;SDS011;2987;50.884;14.818;2023-02-01T14:26:46;11.03;;;3.97;;
5923;SDS011;2987;50.884;14.818;2023-02-01T14:29:25;6.53;;;3.33;;
5923;SDS011;2987;50.884;14.818;2023-02-01T14:32:16;11.13;;;3.60;;
5923;SDS011;2987;50.884;14.818;2023-02-01T14:34:50;10.47;;;3.43;;
5923;SDS011;2987;50.884;14.818;2023-02-01T14:39:56;7.53;;;3.37;;
5923;SDS011;2987;50.884;14.818;2023-02-01T14:42:29;9.27;;;3.30;;
5923;SDS011;2987;50.884;14.818;2023-02-01T14:51:08;9.57;;;3.03;;
5923;SDS011;2987;50.884;14.818;2023-02-01T14:53:36;12.83;;;3.10;;
5923;SDS011;2987;50.884;14.818;2023-02-01T14:56:08;9.70;;;3.63;;
5923;SDS011;2987;50.884;14.818;2023-02-01T14:58:42;6.53;;;3.33;;
5923;SDS011;2987;50.884;14.818;2023-02-01T15:01:18;11.23;;;3.50;;
5923;SDS011;2987;50.884;14.818;2023-02-01T15:04:04;10.37;;;3.37;;
5923;SDS011;2987;50.884;14.818;2023-02-01T15:06:43;8.93;;;3.60;;
5923;SDS011;2987;50.884;14.818;2023-02-01T15:09:16;11.17;;;3.47;;
5923;SDS011;2987;50.884;14.818;2023-02-01T15:11:53;10.77;;;3.53;;
5923;SDS011;2987;50.884;14.818;2023-02-01T15:17:25;7.60;;;3.23;;
5923;SDS011;2987;50.884;14.818;2023-02-01T15:20:00;12.07;;;3.50;;
5923;SDS011;2987;50.884;14.818;2023-02-01T15:22:29;6.87;;;3.27;;
5923;SDS011;2987;50.884;14.818;2023-02-01T15:24:57;8.37;;;2.77;;
5923;SDS011;2987;50.884;14.818;2023-02-01T15:29:52;9.57;;;3.33;;
5923;SDS011;2987;50.884;14.818;2023-02-01T15:32:36;11.60;;;3.53;;
5923;SDS011;2987;50.884;14.818;2023-02-01T15:35:04;6.77;;;2.73;;
5923;SDS011;2987;50.884;14.818;2023-02-01T15:37:31;10.97;;;2.90;;
5923;SDS011;2987;50.884;14.818;2023-02-01T15:40:18;8.00;;;2.90;;
5923;SDS011;2987;50.884;14.818;2023-02-01T15:42:50;9.73;;;2.83;;
5923;SDS011;2987;50.884;14.818;2023-02-01T15:45:19;9.57;;;2.90;;
5923;SDS011;2987;50.884;14.818;2023-02-01T15:47:49;5.80;;;3.07;;
5923;SDS011;2987;50.884;14.818;2023-02-01T15:50:18;8.93;;;2.87;;
5923;SDS011;2987;50.884;14.818;2023-02-01T15:52:46;11.37;;;3.43;;
5923;SDS011;2987;50.884;14.818;2023-02-01T15:55:18;8.87;;;3.20;;
5923;SDS011;2987;50.884;14.818;2023-02-01T15:57:49;9.27;;;3.40;;
5923;SDS011;2987;50.884;14.818;2023-02-01T16:00:21;12.90;;;3.70;;
5923;SDS011;2987;50.884;14.818;2023-02-01T16:02:53;8.87;;;3.10;;
5923;SDS011;2987;50.884;14.818;2023-02-01T16:05:31;7.60;;;2.73;;
5923;SDS011;2987;50.884;14.818;2023-02-01T16:08:03;8.20;;;3.30;;
5923;SDS011;2987;50.884;14.818;2023-02-01T16:10:40;7.83;;;3.10;;
5923;SDS011;2987;50.884;14.818;2023-02-01T16:13:09;8.90;;;3.03;;
5923;SDS011;2987;50.884;14.818;2023-02-01T16:15:35;5.20;;;3.57;;
5923;SDS011;2987;50.884;14.818;2023-02-01T16:18:02;8.93;;;3.27;;
5923;SDS011;2987;50.884;14.818;2023-02-01T16:20:28;8.33;;;3.13;;
5923;SDS011;2987;50.884;14.818;2023-02-01T16:22:55;9.47;;;3.50;;
5923;SDS011;2987;50.884;14.818;2023-02-01T16:25:22;9.87;;;3.70;;
5923;SDS011;2987;50.884;14.818;2023-02-01T16:27:48;6.67;;;3.47;;
5923;SDS011;2987;50.884;14.818;2023-02-01T16:30:14;9.43;;;4.10;;
5923;SDS011;2987;50.884;14.818;2023-02-01T16:32:40;13.27;;;4.10;;
5923;SDS011;2987;50.884;14.818;2023-02-01T16:35:13;8.23;;;3.50;;
5923;SDS011;2987;50.884;14.818;2023-02-01T16:37:47;10.53;;;3.70;;
5923;SDS011;2987;50.884;14.818;2023-02-01T16:40:15;5.03;;;3.33;;
5923;SDS011;2987;50.884;14.818;2023-02-01T16:42:42;8.73;;;4.47;;
5923;SDS011;2987;50.884;14.818;2023-02-01T16:45:09;7.27;;;3.43;;
5923;SDS011;2987;50.884;14.818;2023-02-01T16:47:36;7.87;;;3.47;;
5923;SDS011;2987;50.884;14.818;2023-02-01T16:50:04;6.87;;;3.60;;
5923;SDS011;2987;50.884;14.818;2023-02-01T16:52:41;9.13;;;3.87;;
5923;SDS011;2987;50.884;14.818;2023-02-01T16:55:09;9.57;;;3.33;;
5923;SDS011;2987;50.884;14.818;2023-02-01T16:57:39;6.27;;;2.97;;
5923;SDS011;2987;50.884;14.818;2023-02-01T17:00:06;5.43;;;3.03;;
5923;SDS011;2987;50.884;14.818;2023-02-01T17:02:34;8.83;;;3.40;;
5923;SDS011;2987;50.884;14.818;2023-02-01T17:05:00;6.20;;;3.43;;
5923;SDS011;2987;50.884;14.818;2023-02-01T17:07:26;9.60;;;3.77;;
5923;SDS011;2987;50.884;14.818;2023-02-01T17:09:53;8.73;;;3.53;;
5923;SDS011;2987;50.884;14.818;2023-02-01T17:12:22;6.33;;;3.40;;
5923;SDS011;2987;50.884;14.818;2023-02-01T17:14:51;6.43;;;3.50;;
5923;SDS011;2987;50.884;14.818;2023-02-01T17:17:18;7.20;;;3.57;;
5923;SDS011;2987;50.884;14.818;2023-02-01T17:19:46;6.63;;;3.80;;
5923;SDS011;2987;50.884;14.818;2023-02-01T17:22:19;9.43;;;3.90;;
5923;SDS011;2987;50.884;14.818;2023-02-01T17:24:47;7.33;;;3.90;;
5923;SDS011;2987;50.884;14.818;2023-02-01T17:27:13;7.93;;;3.87;;
5923;SDS011;2987;50.884;14.818;2023-02-01T17:29:40;6.40;;;3.30;;
5923;SDS011;2987;50.884;14.818;2023-02-01T17:32:16;7.17;;;4.17;;
5923;SDS011;2987;50.884;14.818;2023-02-01T17:34:45;6.03;;;3.37;;
5923;SDS011;2987;50.884;14.818;2023-02-01T17:37:28;10.30;;;4.20;;
5923;SDS011;2987;50.884;14.818;2023-02-01T17:39:56;7.83;;;3.20;;
5923;SDS011;2987;50.884;14.818;2023-02-01T17:42:23;5.13;;;3.30;;
5923;SDS011;2987;50.884;14.818;2023-02-01T17:44:54;5.00;;;2.77;;
5923;SDS011;2987;50.884;14.818;2023-02-01T17:47:22;4.67;;;2.53;;
5923;SDS011;2987;50.884;14.818;2023-02-01T17:49:48;3.80;;;2.57;;
5923;SDS011;2987;50.884;14.818;2023-02-01T17:52:22;3.47;;;1.90;;
5923;SDS011;2987;50.884;14.818;2023-02-01T17:54:50;2.07;;;1.50;;
5923;SDS011;2987;50.884;14.818;2023-02-01T17:57:18;1.23;;;1.13;;
5923;SDS011;2987;50.884;14.818;2023-02-01T17:59:44;1.47;;;1.30;;
5923;SDS011;2987;50.884;14.818;2023-02-01T18:02:15;1.60;;;1.17;;
5923;SDS011;2987;50.884;14.818;2023-02-01T18:04:46;1.07;;;1.07;;
5923;SDS011;2987;50.884;14.818;2023-02-01T18:07:14;1.03;;;1.03;;
5923;SDS011;2987;50.884;14.818;2023-02-01T18:09:40;1.10;;;1.10;;
5923;SDS011;2987;50.884;14.818;2023-02-01T18:12:11;1.20;;;1.10;;
5923;SDS011;2987;50.884;14.818;2023-02-01T18:14:45;1.10;;;1.10;;
5923;SDS011;2987;50.884;14.818;2023-02-01T18:17:11;1.20;;;1.10;;
5923;SDS011;2987;50.884;14.818;2023-02-01T18:19:40;1.60;;;1.50;;
5923;SDS011;2987;50.884;14.818;2023-02-01T18:22:12;1.97;;;1.40;;
5923;SDS011;2987;50.884;14.818;2023-02-01T18:24:43;4.43;;;1.73;;
5923;SDS011;2987;50.884;14.818;2023-02-01T18:27:09;1.80;;;1.53;;